sensor_id;sensor_type;location;lat;lon;timestamp;temperature;humidity
4960;DHT22;2495;48.200;11.532;2023-04-03T00:12:12;6.40;79.80
4960;DHT22;2495;48.200;11.532;2023-04-03T00:17:16;6.40;79.70
4960;DHT22;2495;48.200;11.532;2023-04-03T00:22:18;6.40;78.50
4960;DHT22;2495;48.200;11.532;2023-04-03T00:27:19;6.40;79.50
4960;DHT22;2495;48.200;11.532;2023-04-03T00:32:20;6.40;79.30
4960;DHT22;2495;48.200;11.532;2023-04-03T00:37:22;6.50;79.30
4960;DHT22;2495;48.200;11.532;2023-04-03T00:42:29;6.50;78.60
4960;DHT22;2495;48.200;11.532;2023-04-03T00:47:33;6.40;79.50
4960;DHT22;2495;48.200;11.532;2023-04-03T00:58:10;6.30;79.70
4960;DHT22;2495;48.200;11.532;2023-04-03T01:03:11;6.30;79.50
4960;DHT22;2495;48.200;11.532;2023-04-03T01:08:12;6.20;79.20
4960;DHT22;2495;48.200;11.532;2023-04-03T01:13:21;6.20;79.20
4960;DHT22;2495;48.200;11.532;2023-04-03T01:18:27;6.20;80.40
4960;DHT22;2495;48.200;11.532;2023-04-03T01:28:41;6.30;80.40
4960;DHT22;2495;48.200;11.532;2023-04-03T01:33:51;6.30;79.80
4960;DHT22;2495;48.200;11.532;2023-04-03T01:38:52;6.40;80.40
4960;DHT22;2495;48.200;11.532;2023-04-03T01:43:59;6.30;79.80
4960;DHT22;2495;48.200;11.532;2023-04-03T01:49:13;6.20;80.30
4960;DHT22;2495;48.200;11.532;2023-04-03T01:54:23;6.10;80.30
4960;DHT22;2495;48.200;11.532;2023-04-03T01:59:24;6.20;80.20
4960;DHT22;2495;48.200;11.532;2023-04-03T02:04:29;6.30;80.30
4960;DHT22;2495;48.200;11.532;2023-04-03T02:09:39;6.30;80.40
4960;DHT22;2495;48.200;11.532;2023-04-03T02:14:40;6.30;80.40
4960;DHT22;2495;48.200;11.532;2023-04-03T02:19:47;6.30;79.60
4960;DHT22;2495;48.200;11.532;2023-04-03T02:24:49;6.40;79.80
4960;DHT22;2495;48.200;11.532;2023-04-03T02:29:50;6.30;79.20
4960;DHT22;2495;48.200;11.532;2023-04-03T02:34:51;6.20;78.80
4960;DHT22;2495;48.200;11.532;2023-04-03T02:39:52;6.20;79.20
4960;DHT22;2495;48.200;11.532;2023-04-03T02:44:54;6.20;79.20
4960;DHT22;2495;48.200;11.532;2023-04-03T02:49:55;6.30;79.20
4960;DHT22;2495;48.200;11.532;2023-04-03T02:54:56;6.30;78.90
4960;DHT22;2495;48.200;11.532;2023-04-03T02:59:57;6.30;78.80
4960;DHT22;2495;48.200;11.532;2023-04-03T03:04:59;6.50;79.90
4960;DHT22;2495;48.200;11.532;2023-04-03T03:10:00;6.60;78.20
4960;DHT22;2495;48.200;11.532;2023-04-03T03:15:01;6.60;77.80
4960;DHT22;2495;48.200;11.532;2023-04-03T03:20:03;6.40;77.70
4960;DHT22;2495;48.200;11.532;2023-04-03T03:25:04;6.30;77.70
4960;DHT22;2495;48.200;11.532;2023-04-03T03:30:06;6.30;77.80
4960;DHT22;2495;48.200;11.532;2023-04-03T03:35:08;6.30;77.80
4960;DHT22;2495;48.200;11.532;2023-04-03T03:40:10;6.60;79.40
4960;DHT22;2495;48.200;11.532;2023-04-03T03:45:11;6.60;77.10
4960;DHT22;2495;48.200;11.532;2023-04-03T03:50:12;6.50;76.70
4960;DHT22;2495;48.200;11.532;2023-04-03T03:55:13;6.40;76.40
4960;DHT22;2495;48.200;11.532;2023-04-03T04:00:15;6.40;76.90
4960;DHT22;2495;48.200;11.532;2023-04-03T04:05:16;6.30;76.50
4960;DHT22;2495;48.200;11.532;2023-04-03T04:10:17;6.30;76.60
4960;DHT22;2495;48.200;11.532;2023-04-03T04:15:18;6.20;76.60
4960;DHT22;2495;48.200;11.532;2023-04-03T04:20:20;6.20;76.90
4960;DHT22;2495;48.200;11.532;2023-04-03T04:25:21;6.20;76.80
4960;DHT22;2495;48.200;11.532;2023-04-03T04:30:22;6.10;77.00
4960;DHT22;2495;48.200;11.532;2023-04-03T04:35:24;6.10;76.80
4960;DHT22;2495;48.200;11.532;2023-04-03T04:40:25;6.20;77.80
4960;DHT22;2495;48.200;11.532;2023-04-03T04:45:26;6.20;77.30
4960;DHT22;2495;48.200;11.532;2023-04-03T04:50:27;6.30;77.20
4960;DHT22;2495;48.200;11.532;2023-04-03T04:55:28;6.30;77.10
4960;DHT22;2495;48.200;11.532;2023-04-03T05:00:30;6.20;77.50
4960;DHT22;2495;48.200;11.532;2023-04-03T05:05:31;6.20;77.40
4960;DHT22;2495;48.200;11.532;2023-04-03T05:10:32;6.20;77.50
4960;DHT22;2495;48.200;11.532;2023-04-03T05:15:33;6.20;77.40
4960;DHT22;2495;48.200;11.532;2023-04-03T05:20:35;6.30;77.50
4960;DHT22;2495;48.200;11.532;2023-04-03T05:25:39;6.20;76.90
4960;DHT22;2495;48.200;11.532;2023-04-03T05:30:40;6.20;77.50
4960;DHT22;2495;48.200;11.532;2023-04-03T05:35:41;6.20;77.10
4960;DHT22;2495;48.200;11.532;2023-04-03T05:40:43;6.20;77.10
4960;DHT22;2495;48.200;11.532;2023-04-03T05:45:44;6.20;77.30
4960;DHT22;2495;48.200;11.532;2023-04-03T05:50:45;6.30;77.50
4960;DHT22;2495;48.200;11.532;2023-04-03T05:55:46;6.30;77.30
4960;DHT22;2495;48.200;11.532;2023-04-03T06:00:48;6.30;77.10
4960;DHT22;2495;48.200;11.532;2023-04-03T06:05:49;6.40;76.60
4960;DHT22;2495;48.200;11.532;2023-04-03T06:10:50;6.40;76.70
4960;DHT22;2495;48.200;11.532;2023-04-03T06:15:51;6.40;76.20
4960;DHT22;2495;48.200;11.532;2023-04-03T06:20:53;6.40;76.40
4960;DHT22;2495;48.200;11.532;2023-04-03T06:25:54;6.80;77.80
4960;DHT22;2495;48.200;11.532;2023-04-03T06:30:55;7.00;76.10
4960;DHT22;2495;48.200;11.532;2023-04-03T06:36:02;7.00;75.10
4960;DHT22;2495;48.200;11.532;2023-04-03T06:41:01;6.90;74.90
4960;DHT22;2495;48.200;11.532;2023-04-03T06:46:02;6.80;74.20
4960;DHT22;2495;48.200;11.532;2023-04-03T06:51:03;6.70;74.10
4960;DHT22;2495;48.200;11.532;2023-04-03T06:56:05;6.80;74.30
4960;DHT22;2495;48.200;11.532;2023-04-03T07:01:06;6.90;74.20
4960;DHT22;2495;48.200;11.532;2023-04-03T07:06:09;7.00;74.00
4960;DHT22;2495;48.200;11.532;2023-04-03T07:11:09;7.10;73.50
4960;DHT22;2495;48.200;11.532;2023-04-03T07:16:10;7.00;73.40
4960;DHT22;2495;48.200;11.532;2023-04-03T07:21:11;7.10;72.50
4960;DHT22;2495;48.200;11.532;2023-04-03T07:26:12;7.30;73.60
4960;DHT22;2495;48.200;11.532;2023-04-03T07:31:14;7.90;72.60
4960;DHT22;2495;48.200;11.532;2023-04-03T07:36:16;8.10;72.50
4960;DHT22;2495;48.200;11.532;2023-04-03T07:41:17;8.10;70.70
4960;DHT22;2495;48.200;11.532;2023-04-03T07:46:17;8.10;70.50
4960;DHT22;2495;48.200;11.532;2023-04-03T07:51:18;8.00;71.80
4960;DHT22;2495;48.200;11.532;2023-04-03T07:56:20;8.20;69.90
4960;DHT22;2495;48.200;11.532;2023-04-03T08:01:21;8.10;68.60
4960;DHT22;2495;48.200;11.532;2023-04-03T08:06:22;7.80;68.70
4960;DHT22;2495;48.200;11.532;2023-04-03T08:11:23;7.70;69.10
4960;DHT22;2495;48.200;11.532;2023-04-03T08:16:24;7.90;70.10
4960;DHT22;2495;48.200;11.532;2023-04-03T08:21:28;7.90;68.30
4960;DHT22;2495;48.200;11.532;2023-04-03T08:26:29;8.00;69.30
4960;DHT22;2495;48.200;11.532;2023-04-03T08:31:31;8.20;69.60
4960;DHT22;2495;48.200;11.532;2023-04-03T08:36:32;8.20;67.70
4960;DHT22;2495;48.200;11.532;2023-04-03T08:41:42;8.20;69.90
4960;DHT22;2495;48.200;11.532;2023-04-03T08:51:53;8.20;69.80
4960;DHT22;2495;48.200;11.532;2023-04-03T08:56:55;8.50;69.00
4960;DHT22;2495;48.200;11.532;2023-04-03T09:01:56;8.40;67.30
4960;DHT22;2495;48.200;11.532;2023-04-03T09:07:13;8.60;68.20
4960;DHT22;2495;48.200;11.532;2023-04-03T09:12:24;8.50;67.10
4960;DHT22;2495;48.200;11.532;2023-04-03T09:17:31;8.40;67.50
4960;DHT22;2495;48.200;11.532;2023-04-03T09:22:31;8.20;67.00
4960;DHT22;2495;48.200;11.532;2023-04-03T09:27:32;8.60;68.10
4960;DHT22;2495;48.200;11.532;2023-04-03T09:32:34;8.90;66.00
4960;DHT22;2495;48.200;11.532;2023-04-03T09:42:45;8.60;64.70
4960;DHT22;2495;48.200;11.532;2023-04-03T09:47:46;8.30;65.10
4960;DHT22;2495;48.200;11.532;2023-04-03T09:52:49;8.40;65.30
4960;DHT22;2495;48.200;11.532;2023-04-03T09:57:52;8.60;66.20
4960;DHT22;2495;48.200;11.532;2023-04-03T10:02:56;8.50;64.60
4960;DHT22;2495;48.200;11.532;2023-04-03T10:24:23;8.50;67.40
4960;DHT22;2495;48.200;11.532;2023-04-03T10:34:40;8.30;64.80
4960;DHT22;2495;48.200;11.532;2023-04-03T10:39:53;8.30;64.70
4960;DHT22;2495;48.200;11.532;2023-04-03T10:56:30;8.10;64.20
4960;DHT22;2495;48.200;11.532;2023-04-03T11:01:33;7.80;62.50
4960;DHT22;2495;48.200;11.532;2023-04-03T11:06:37;7.80;62.20
4960;DHT22;2495;48.200;11.532;2023-04-03T11:11:40;7.60;61.70
4960;DHT22;2495;48.200;11.532;2023-04-03T11:16:48;7.50;62.70
4960;DHT22;2495;48.200;11.532;2023-04-03T11:21:51;7.50;63.70
4960;DHT22;2495;48.200;11.532;2023-04-03T11:26:50;7.80;65.60
4960;DHT22;2495;48.200;11.532;2023-04-03T11:32:18;8.00;62.80
4960;DHT22;2495;48.200;11.532;2023-04-03T11:42:42;7.80;58.80
4960;DHT22;2495;48.200;11.532;2023-04-03T11:52:58;8.30;57.60
4960;DHT22;2495;48.200;11.532;2023-04-03T12:03:07;9.10;53.20
4960;DHT22;2495;48.200;11.532;2023-04-03T12:08:27;9.50;52.10
4960;DHT22;2495;48.200;11.532;2023-04-03T12:13:27;10.50;50.20
4960;DHT22;2495;48.200;11.532;2023-04-03T12:18:43;10.70;48.60
4960;DHT22;2495;48.200;11.532;2023-04-03T12:29:17;10.30;49.70
4960;DHT22;2495;48.200;11.532;2023-04-03T12:35:05;10.40;49.40
4960;DHT22;2495;48.200;11.532;2023-04-03T12:44:59;10.40;48.00
4960;DHT22;2495;48.200;11.532;2023-04-03T12:49:57;10.40;48.00
4960;DHT22;2495;48.200;11.532;2023-04-03T12:54:59;10.10;47.80
4960;DHT22;2495;48.200;11.532;2023-04-03T13:00:00;10.00;48.70
4960;DHT22;2495;48.200;11.532;2023-04-03T13:05:05;9.80;48.80
4960;DHT22;2495;48.200;11.532;2023-04-03T13:10:15;9.60;49.80
4960;DHT22;2495;48.200;11.532;2023-04-03T13:15:17;9.30;49.20
4960;DHT22;2495;48.200;11.532;2023-04-03T13:20:26;9.20;51.60
4960;DHT22;2495;48.200;11.532;2023-04-03T13:25:28;9.40;49.80
4960;DHT22;2495;48.200;11.532;2023-04-03T13:30:35;9.40;48.70
4960;DHT22;2495;48.200;11.532;2023-04-03T13:35:37;9.20;50.00
4960;DHT22;2495;48.200;11.532;2023-04-03T13:40:46;9.20;50.50
4960;DHT22;2495;48.200;11.532;2023-04-03T13:45:39;9.30;50.60
4960;DHT22;2495;48.200;11.532;2023-04-03T14:01:09;10.00;49.00
4960;DHT22;2495;48.200;11.532;2023-04-03T14:06:11;10.00;49.50
4960;DHT22;2495;48.200;11.532;2023-04-03T14:11:27;10.00;48.00
4960;DHT22;2495;48.200;11.532;2023-04-03T14:16:28;10.30;48.10
4960;DHT22;2495;48.200;11.532;2023-04-03T14:21:28;10.30;47.50
4960;DHT22;2495;48.200;11.532;2023-04-03T14:26:29;10.30;47.30
4960;DHT22;2495;48.200;11.532;2023-04-03T14:31:31;10.40;44.30
4960;DHT22;2495;48.200;11.532;2023-04-03T14:36:32;10.50;44.60
4960;DHT22;2495;48.200;11.532;2023-04-03T14:41:33;10.60;44.40
4960;DHT22;2495;48.200;11.532;2023-04-03T14:46:36;10.70;44.90
4960;DHT22;2495;48.200;11.532;2023-04-03T14:51:36;10.90;44.90
4960;DHT22;2495;48.200;11.532;2023-04-03T14:56:37;11.00;42.60
4960;DHT22;2495;48.200;11.532;2023-04-03T15:01:38;11.20;42.30
4960;DHT22;2495;48.200;11.532;2023-04-03T15:06:40;11.30;41.30
4960;DHT22;2495;48.200;11.532;2023-04-03T15:11:42;11.40;40.00
4960;DHT22;2495;48.200;11.532;2023-04-03T15:16:43;11.70;40.20
4960;DHT22;2495;48.200;11.532;2023-04-03T15:21:45;12.80;38.80
4960;DHT22;2495;48.200;11.532;2023-04-03T15:26:46;12.70;38.50
4960;DHT22;2495;48.200;11.532;2023-04-03T15:31:51;12.70;37.10
4960;DHT22;2495;48.200;11.532;2023-04-03T15:36:55;12.10;39.50
4960;DHT22;2495;48.200;11.532;2023-04-03T15:41:56;12.00;39.00
4960;DHT22;2495;48.200;11.532;2023-04-03T15:46:57;11.90;38.50
4960;DHT22;2495;48.200;11.532;2023-04-03T15:52:00;11.90;40.10
4960;DHT22;2495;48.200;11.532;2023-04-03T15:57:02;11.50;38.30
4960;DHT22;2495;48.200;11.532;2023-04-03T16:02:04;11.50;38.00
4960;DHT22;2495;48.200;11.532;2023-04-03T16:07:04;11.00;38.00
4960;DHT22;2495;48.200;11.532;2023-04-03T16:12:06;10.80;38.60
4960;DHT22;2495;48.200;11.532;2023-04-03T16:17:07;10.30;39.40
4960;DHT22;2495;48.200;11.532;2023-04-03T16:22:08;10.10;39.90
4960;DHT22;2495;48.200;11.532;2023-04-03T16:27:10;9.90;40.20
4960;DHT22;2495;48.200;11.532;2023-04-03T16:32:11;9.70;39.20
4960;DHT22;2495;48.200;11.532;2023-04-03T16:37:15;9.80;39.80
4960;DHT22;2495;48.200;11.532;2023-04-03T16:42:19;10.30;40.00
4960;DHT22;2495;48.200;11.532;2023-04-03T16:47:27;10.30;40.30
4960;DHT22;2495;48.200;11.532;2023-04-03T16:52:31;10.60;38.40
4960;DHT22;2495;48.200;11.532;2023-04-03T16:57:35;10.50;38.80
4960;DHT22;2495;48.200;11.532;2023-04-03T17:02:37;10.10;39.50
4960;DHT22;2495;48.200;11.532;2023-04-03T17:07:38;9.20;41.00
4960;DHT22;2495;48.200;11.532;2023-04-03T17:12:42;8.90;41.40
4960;DHT22;2495;48.200;11.532;2023-04-03T17:17:43;8.60;42.70
4960;DHT22;2495;48.200;11.532;2023-04-03T17:22:44;8.40;43.00
4960;DHT22;2495;48.200;11.532;2023-04-03T17:27:46;8.10;45.20
4960;DHT22;2495;48.200;11.532;2023-04-03T17:32:48;8.10;44.30
4960;DHT22;2495;48.200;11.532;2023-04-03T17:37:49;8.00;44.90
4960;DHT22;2495;48.200;11.532;2023-04-03T17:42:50;7.90;45.80
4960;DHT22;2495;48.200;11.532;2023-04-03T17:47:52;7.70;46.10
4960;DHT22;2495;48.200;11.532;2023-04-03T17:52:53;7.60;46.50
4960;DHT22;2495;48.200;11.532;2023-04-03T17:57:54;7.50;45.50
4960;DHT22;2495;48.200;11.532;2023-04-03T18:02:56;7.40;45.50
4960;DHT22;2495;48.200;11.532;2023-04-03T18:07:57;7.30;45.70
4960;DHT22;2495;48.200;11.532;2023-04-03T18:13:02;7.30;46.60
4960;DHT22;2495;48.200;11.532;2023-04-03T18:18:00;7.20;46.70
4960;DHT22;2495;48.200;11.532;2023-04-03T18:23:01;7.20;46.90
4960;DHT22;2495;48.200;11.532;2023-04-03T18:28:03;7.10;47.70
4960;DHT22;2495;48.200;11.532;2023-04-03T18:33:04;7.10;48.30
4960;DHT22;2495;48.200;11.532;2023-04-03T18:38:05;7.00;48.80
4960;DHT22;2495;48.200;11.532;2023-04-03T18:43:06;6.90;48.70
4960;DHT22;2495;48.200;11.532;2023-04-03T18:48:07;6.80;48.60
4960;DHT22;2495;48.200;11.532;2023-04-03T18:53:09;6.70;49.00
4960;DHT22;2495;48.200;11.532;2023-04-03T18:58:10;6.70;49.00
4960;DHT22;2495;48.200;11.532;2023-04-03T19:03:15;6.60;48.50
4960;DHT22;2495;48.200;11.532;2023-04-03T19:08:21;6.60;48.90
4960;DHT22;2495;48.200;11.532;2023-04-03T19:13:29;6.60;49.50
4960;DHT22;2495;48.200;11.532;2023-04-03T19:18:30;6.50;49.80
4960;DHT22;2495;48.200;11.532;2023-04-03T19:23:31;6.30;49.40
4960;DHT22;2495;48.200;11.532;2023-04-03T19:28:36;6.20;49.70
4960;DHT22;2495;48.200;11.532;2023-04-03T19:33:40;6.20;50.40
4960;DHT22;2495;48.200;11.532;2023-04-03T19:38:42;6.10;50.70
4960;DHT22;2495;48.200;11.532;2023-04-03T19:43:44;5.90;50.60
4960;DHT22;2495;48.200;11.532;2023-04-03T19:48:45;5.80;50.90
4960;DHT22;2495;48.200;11.532;2023-04-03T19:53:52;5.70;51.50
4960;DHT22;2495;48.200;11.532;2023-04-03T19:58:58;5.70;51.40
4960;DHT22;2495;48.200;11.532;2023-04-03T20:03:59;5.50;52.10
4960;DHT22;2495;48.200;11.532;2023-04-03T20:09:01;5.50;52.10
4960;DHT22;2495;48.200;11.532;2023-04-03T20:14:05;5.40;52.50
4960;DHT22;2495;48.200;11.532;2023-04-03T20:19:04;5.40;53.10
4960;DHT22;2495;48.200;11.532;2023-04-03T20:24:06;5.30;52.40
4960;DHT22;2495;48.200;11.532;2023-04-03T20:29:09;5.10;53.90
4960;DHT22;2495;48.200;11.532;2023-04-03T20:34:10;5.10;52.80
4960;DHT22;2495;48.200;11.532;2023-04-03T20:39:12;5.00;53.50
4960;DHT22;2495;48.200;11.532;2023-04-03T20:44:22;5.00;53.20
4960;DHT22;2495;48.200;11.532;2023-04-03T20:49:23;4.90;53.50
4960;DHT22;2495;48.200;11.532;2023-04-03T20:54:25;4.90;53.10
4960;DHT22;2495;48.200;11.532;2023-04-03T20:59:29;4.80;53.40
4960;DHT22;2495;48.200;11.532;2023-04-03T21:04:48;4.80;54.40
4960;DHT22;2495;48.200;11.532;2023-04-03T21:20:56;4.60;54.50
4960;DHT22;2495;48.200;11.532;2023-04-03T21:26:00;4.60;54.20
4960;DHT22;2495;48.200;11.532;2023-04-03T21:31:02;4.60;54.90
4960;DHT22;2495;48.200;11.532;2023-04-03T21:36:03;4.70;54.80
4960;DHT22;2495;48.200;11.532;2023-04-03T21:41:08;4.70;54.50
4960;DHT22;2495;48.200;11.532;2023-04-03T21:46:07;4.70;54.20
4960;DHT22;2495;48.200;11.532;2023-04-03T21:51:08;4.60;54.60
4960;DHT22;2495;48.200;11.532;2023-04-03T21:56:10;4.60;54.70
4960;DHT22;2495;48.200;11.532;2023-04-03T22:01:18;4.90;55.10
4960;DHT22;2495;48.200;11.532;2023-04-03T22:06:19;4.80;54.60
4960;DHT22;2495;48.200;11.532;2023-04-03T22:11:22;4.60;55.20
4960;DHT22;2495;48.200;11.532;2023-04-03T22:16:23;4.50;54.60
4960;DHT22;2495;48.200;11.532;2023-04-03T22:21:24;4.40;55.00
4960;DHT22;2495;48.200;11.532;2023-04-03T22:26:29;4.30;55.30
4960;DHT22;2495;48.200;11.532;2023-04-03T22:31:30;4.30;55.90
4960;DHT22;2495;48.200;11.532;2023-04-03T22:36:31;4.20;55.60
4960;DHT22;2495;48.200;11.532;2023-04-03T22:52:12;4.40;57.80
4960;DHT22;2495;48.200;11.532;2023-04-03T22:57:14;4.40;56.50
4960;DHT22;2495;48.200;11.532;2023-04-03T23:02:15;4.20;56.30
4960;DHT22;2495;48.200;11.532;2023-04-03T23:07:47;4.00;56.70
4960;DHT22;2495;48.200;11.532;2023-04-03T23:12:28;3.90;56.90
4960;DHT22;2495;48.200;11.532;2023-04-03T23:17:29;3.80;57.00
4960;DHT22;2495;48.200;11.532;2023-04-03T23:22:31;3.80;57.30
4960;DHT22;2495;48.200;11.532;2023-04-03T23:27:32;3.70;57.40
4960;DHT22;2495;48.200;11.532;2023-04-03T23:32:35;3.60;59.20
4960;DHT22;2495;48.200;11.532;2023-04-03T23:37:41;3.50;57.60
4960;DHT22;2495;48.200;11.532;2023-04-03T23:42:45;3.60;58.70
4960;DHT22;2495;48.200;11.532;2023-04-03T23:47:49;3.50;59.50
4960;DHT22;2495;48.200;11.532;2023-04-03T23:52:51;3.60;59.90
4960;DHT22;2495;48.200;11.532;2023-04-03T23:57:52;3.60;59.40
